createdAt,value
2018-02-22T00:01:18.149Z,27.50
2018-02-22T00:03:44.766Z,27.23
2018-02-22T00:06:11.387Z,27.02
2018-02-22T00:08:38.009Z,25.98
2018-02-22T00:11:04.706Z,25.02
2018-02-22T00:13:31.389Z,25.02
2018-02-22T00:15:58.023Z,27.27
2018-02-22T00:18:24.730Z,28.80
2018-02-22T00:20:51.365Z,29.12
2018-02-22T00:23:18.111Z,23.12
2018-02-22T00:25:44.746Z,26.37
2018-02-22T00:28:11.428Z,25.40
2018-02-22T00:30:38.169Z,26.35
2018-02-22T00:33:04.870Z,25.52
2018-02-22T00:35:31.481Z,26.67
2018-02-22T00:37:58.115Z,25.37
2018-02-22T00:40:24.786Z,26.12
2018-02-22T00:42:51.403Z,25.50
2018-02-22T00:45:18.034Z,25.17
2018-02-22T00:47:44.646Z,25.90
2018-02-22T00:50:11.259Z,24.00
2018-02-22T00:52:37.922Z,24.90
2018-02-22T00:55:04.538Z,27.05
2018-02-22T00:57:31.149Z,25.77
2018-02-22T00:59:57.779Z,25.23
2018-02-22T01:02:24.402Z,27.87
2018-02-22T01:04:51.080Z,26.00
2018-02-22T01:07:17.714Z,25.98
2018-02-22T01:09:44.326Z,26.45
2018-02-22T01:12:10.994Z,28.90
2018-02-22T01:14:37.730Z,24.45
2018-02-22T01:17:04.345Z,26.35
2018-02-22T01:19:30.957Z,24.50
2018-02-22T01:21:57.657Z,25.55
2018-02-22T01:24:24.265Z,23.15
2018-02-22T01:26:50.970Z,25.25
2018-02-22T01:29:17.597Z,27.50
2018-02-22T01:31:44.310Z,25.30
2018-02-22T01:34:10.949Z,24.40
2018-02-22T01:36:37.685Z,25.77
2018-02-22T01:39:04.371Z,26.70
2018-02-22T01:41:31.073Z,24.77
2018-02-22T01:43:57.709Z,25.33
2018-02-22T01:46:24.353Z,25.55
2018-02-22T01:48:50.998Z,25.70
2018-02-22T01:51:17.633Z,28.50
2018-02-22T01:53:44.249Z,25.23
2018-02-22T01:56:10.866Z,25.15
2018-02-22T01:58:37.498Z,26.75
2018-02-22T02:01:04.183Z,26.20
2018-02-22T02:03:30.802Z,26.25
2018-02-22T02:05:57.426Z,24.45
2018-02-22T02:08:24.040Z,25.67
2018-02-22T02:10:50.742Z,26.70
2018-02-22T02:13:17.382Z,26.25
2018-02-22T02:15:43.985Z,24.40
2018-02-22T02:18:10.656Z,23.65
2018-02-22T02:20:37.399Z,26.35
2018-02-22T02:23:04.006Z,26.48
2018-02-22T02:25:30.621Z,29.30
2018-02-22T02:28:02.830Z,25.55
2018-02-22T02:30:29.529Z,25.42
2018-02-22T02:32:56.144Z,25.50
2018-02-22T02:35:22.866Z,24.83
2018-02-22T02:37:49.548Z,25.58
2018-02-22T02:40:16.159Z,25.48
2018-02-22T02:42:42.791Z,26.80
2018-02-22T02:45:09.464Z,25.15
2018-02-22T02:47:36.166Z,25.77
2018-02-22T02:50:02.914Z,25.15
2018-02-22T02:52:29.527Z,26.42
2018-02-22T02:54:56.228Z,26.85
2018-02-22T02:57:22.859Z,28.85
2018-02-22T02:59:49.474Z,26.15
2018-02-22T03:02:16.082Z,27.73
2018-02-22T03:04:42.714Z,25.17
2018-02-22T03:07:09.342Z,26.33
2018-02-22T03:09:35.958Z,25.98
2018-02-22T03:12:02.582Z,27.00
2018-02-22T03:14:29.302Z,25.40
2018-02-22T03:16:55.977Z,27.17
2018-02-22T03:19:22.606Z,25.73
2018-02-22T03:21:49.357Z,27.00
2018-02-22T03:24:15.973Z,26.20
2018-02-22T03:26:42.698Z,26.25
2018-02-22T03:29:09.335Z,28.42
2018-02-22T03:31:35.979Z,26.27
2018-02-22T03:34:02.613Z,25.25
2018-02-22T03:36:29.249Z,26.45
2018-02-22T03:38:55.866Z,27.20
2018-02-22T03:41:22.498Z,27.00
2018-02-22T03:43:49.169Z,26.15
2018-02-22T03:46:15.785Z,26.37
2018-02-22T03:48:42.427Z,25.83
2018-02-22T03:51:09.038Z,26.95
2018-02-22T03:53:35.655Z,25.02
2018-02-22T03:56:02.369Z,25.80
2018-02-22T03:58:28.986Z,27.65
2018-02-22T04:00:55.597Z,27.62
2018-02-22T04:03:22.225Z,26.52
2018-02-22T04:05:48.841Z,25.20
2018-02-22T04:08:15.459Z,28.73
2018-02-22T04:10:42.081Z,24.52
2018-02-22T04:13:08.701Z,27.02
2018-02-22T04:15:35.378Z,28.58
2018-02-22T04:18:02.063Z,25.30
2018-02-22T04:20:29.483Z,27.87
2018-02-22T04:22:56.097Z,25.40
2018-02-22T04:25:22.734Z,24.30
2018-02-22T04:27:49.390Z,25.88
2018-02-22T04:30:16.011Z,27.75
2018-02-22T04:32:42.643Z,28.38
2018-02-22T04:35:09.351Z,27.67
2018-02-22T04:37:35.965Z,29.20
2018-02-22T04:40:02.693Z,26.45
2018-02-22T04:42:29.330Z,26.87
2018-02-22T04:44:55.953Z,24.67
2018-02-22T04:47:23.442Z,31.42
2018-02-22T04:49:50.049Z,27.85
2018-02-22T04:52:16.670Z,28.67
2018-02-22T04:54:43.341Z,29.10
2018-02-22T04:57:09.957Z,28.30
2018-02-22T04:59:36.574Z,25.83
2018-02-22T05:02:03.262Z,27.95
2018-02-22T05:04:29.906Z,26.42
2018-02-22T05:06:56.535Z,26.20
2018-02-22T05:09:23.182Z,26.42
2018-02-22T05:11:49.789Z,28.10
2018-02-22T05:14:16.457Z,25.48
2018-02-22T05:16:43.185Z,27.50
2018-02-22T05:19:09.803Z,29.50
2018-02-22T05:21:36.519Z,25.90
2018-02-22T05:24:03.148Z,26.33
2018-02-22T05:26:29.766Z,27.37
2018-02-22T05:28:56.399Z,25.52
2018-02-22T05:31:23.074Z,25.88
2018-02-22T05:33:49.686Z,26.58
2018-02-22T05:36:16.302Z,26.60
2018-02-22T05:38:42.994Z,27.37
2018-02-22T05:41:09.610Z,26.42
2018-02-22T05:43:36.337Z,31.17
2018-02-22T05:46:03.064Z,29.37
2018-02-22T05:48:29.754Z,29.20
2018-02-22T05:50:56.495Z,30.15
2018-02-22T05:53:23.194Z,29.48
2018-02-22T05:55:49.838Z,26.65
2018-02-22T05:58:16.458Z,27.67
2018-02-22T06:00:43.102Z,28.35
2018-02-22T06:03:09.718Z,29.65
2018-02-22T06:05:36.390Z,30.58
2018-02-22T06:08:03.019Z,26.73
2018-02-22T06:10:29.643Z,27.15
2018-02-22T06:12:56.315Z,28.45
2018-02-22T06:15:22.944Z,27.98
2018-02-22T06:17:49.550Z,28.17
2018-02-22T06:20:16.166Z,27.30
2018-02-22T06:22:42.870Z,25.10
2018-02-22T06:25:09.546Z,25.58
2018-02-22T06:27:36.171Z,27.55
2018-02-22T06:30:02.804Z,26.50
2018-02-22T06:32:29.418Z,24.50
2018-02-22T06:34:56.029Z,26.33
2018-02-22T06:37:22.661Z,26.42
2018-02-22T06:39:49.277Z,24.50
2018-02-22T06:42:15.980Z,23.25
2018-02-22T06:44:42.605Z,24.65
2018-02-22T06:47:09.298Z,23.05
2018-02-22T06:49:35.905Z,24.60
2018-02-22T06:52:02.535Z,24.85
2018-02-22T06:54:29.141Z,24.10
2018-02-22T06:56:55.759Z,22.30
2018-02-22T06:59:22.389Z,23.17
2018-02-22T07:01:49.006Z,23.95
2018-02-22T07:04:15.626Z,22.17
2018-02-22T07:06:42.358Z,22.08
2018-02-22T07:09:09.050Z,22.23
2018-02-22T07:11:35.665Z,20.20
2018-02-22T07:14:02.290Z,19.40
2018-02-22T07:16:28.906Z,22.62
2018-02-22T07:18:55.604Z,20.62
2018-02-22T07:21:22.229Z,20.55
2018-02-22T07:23:48.940Z,19.92
2018-02-22T07:26:15.549Z,19.17
2018-02-22T07:28:42.190Z,19.73
2018-02-22T07:31:08.802Z,20.27
2018-02-22T07:33:35.422Z,19.48
2018-02-22T07:36:02.138Z,18.48
2018-02-22T07:38:28.769Z,19.02
2018-02-22T07:40:55.423Z,18.80
2018-02-22T07:43:22.099Z,19.12
2018-02-22T07:45:48.802Z,17.40
2018-02-22T07:48:15.414Z,16.10
2018-02-22T07:50:42.119Z,18.20
2018-02-22T07:53:08.725Z,17.00
2018-02-22T07:55:35.346Z,18.00
2018-02-22T07:58:01.979Z,16.48
2018-02-22T08:00:28.678Z,15.57
2018-02-22T08:02:55.417Z,15.70
2018-02-22T08:05:22.118Z,16.85
2018-02-22T08:07:48.734Z,16.00
2018-02-22T08:10:15.393Z,15.50
2018-02-22T08:12:42.030Z,17.12
2018-02-22T08:15:08.637Z,13.80
2018-02-22T08:17:35.258Z,16.20
2018-02-22T08:20:01.889Z,15.52
2018-02-22T08:22:28.631Z,14.52
2018-02-22T08:24:55.257Z,15.13
2018-02-22T08:27:21.974Z,16.37
2018-02-22T08:29:48.593Z,15.27
2018-02-22T08:32:15.252Z,16.27
2018-02-22T08:34:41.881Z,15.73
2018-02-22T08:37:08.569Z,14.73
2018-02-22T08:39:35.244Z,14.65
2018-02-22T08:42:01.874Z,13.13
2018-02-22T08:44:28.557Z,13.07
2018-02-22T08:46:55.181Z,15.10
2018-02-22T08:49:21.926Z,14.87
2018-02-22T08:51:48.607Z,15.32
2018-02-22T08:54:15.349Z,12.75
2018-02-22T08:56:41.997Z,13.57
2018-02-22T08:59:08.693Z,13.75
2018-02-22T09:01:35.310Z,13.70
2018-02-22T09:04:02.009Z,12.20
2018-02-22T09:06:28.639Z,15.13
2018-02-22T09:08:55.346Z,13.62
2018-02-22T09:11:21.977Z,14.13
2018-02-22T09:13:48.625Z,14.50
2018-02-22T09:16:15.267Z,14.13
2018-02-22T09:18:42.006Z,13.73
2018-02-22T09:21:08.677Z,13.40
2018-02-22T09:23:35.327Z,14.05
2018-02-22T09:26:01.961Z,14.32
2018-02-22T09:28:28.666Z,14.55
2018-02-22T09:30:55.346Z,14.23
2018-02-22T09:33:22.088Z,14.85
2018-02-22T09:35:48.726Z,14.87
2018-02-22T09:38:15.338Z,13.68
2018-02-22T09:40:41.973Z,13.45
2018-02-22T09:43:08.644Z,11.77
2018-02-22T09:45:35.344Z,14.63
2018-02-22T09:48:01.975Z,14.85
2018-02-22T09:50:28.664Z,13.48
2018-02-22T09:52:55.361Z,12.55
2018-02-22T09:55:22.001Z,12.05
2018-02-22T09:57:48.617Z,11.50
2018-02-22T10:00:15.282Z,13.02
2018-02-22T10:02:41.909Z,12.82
2018-02-22T10:05:08.526Z,13.13
2018-02-22T10:07:35.203Z,12.95
2018-02-22T10:10:01.840Z,11.70
2018-02-22T10:12:28.518Z,11.60
2018-02-22T10:14:55.218Z,13.25
2018-02-22T10:17:21.953Z,12.15
2018-02-22T10:19:48.641Z,12.37
2018-02-22T10:22:15.341Z,10.68
2018-02-22T10:24:42.124Z,11.15
2018-02-22T10:27:08.734Z,11.38
2018-02-22T10:29:35.354Z,10.48
2018-02-22T10:32:02.000Z,10.73
2018-02-22T10:34:28.638Z,13.15
2018-02-22T10:36:55.278Z,9.60
2018-02-22T10:39:21.905Z,10.75
2018-02-22T10:41:48.522Z,10.73
2018-02-22T10:44:15.235Z,12.10
2018-02-22T10:46:41.934Z,11.73
2018-02-22T10:49:08.546Z,12.07
2018-02-22T10:51:35.258Z,12.55
2018-02-22T10:54:01.886Z,11.85
2018-02-22T10:56:28.503Z,12.45
2018-02-22T10:58:55.175Z,11.85
2018-02-22T11:01:27.527Z,11.98
2018-02-22T11:03:54.140Z,10.75
2018-02-22T11:06:20.754Z,11.55
2018-02-22T11:08:47.381Z,12.45
2018-02-22T11:11:14.003Z,12.15
2018-02-22T11:13:40.742Z,12.23
2018-02-22T11:16:07.369Z,12.73
2018-02-22T11:18:34.081Z,11.57
2018-02-22T11:21:00.703Z,11.68
2018-02-22T11:23:27.332Z,13.10
2018-02-22T11:25:53.958Z,12.82
2018-02-22T11:28:20.572Z,13.18
2018-02-22T11:30:47.202Z,14.32
2018-02-22T11:33:13.818Z,13.40
2018-02-22T11:35:40.458Z,12.40
2018-02-22T11:38:07.096Z,12.43
2018-02-22T11:40:33.874Z,13.35
2018-02-22T11:43:00.481Z,12.27
2018-02-22T11:45:27.152Z,13.25
2018-02-22T11:47:53.762Z,12.27
2018-02-22T11:50:20.379Z,17.30
2018-02-22T11:52:47.030Z,13.10
2018-02-22T11:55:13.667Z,12.30
2018-02-22T11:57:40.289Z,12.15
2018-02-22T12:00:06.988Z,11.55
2018-02-22T12:02:33.691Z,11.93
2018-02-22T12:05:00.306Z,13.48
2018-02-22T12:07:26.966Z,13.82
2018-02-22T12:09:53.586Z,11.48
2018-02-22T12:12:20.246Z,11.75
2018-02-22T12:14:46.873Z,10.95
2018-02-22T12:17:13.490Z,11.63
2018-02-22T12:19:40.107Z,13.80
2018-02-22T12:22:06.801Z,11.10
2018-02-22T12:24:33.421Z,10.00
2018-02-22T12:27:00.090Z,9.45
2018-02-22T12:29:26.714Z,10.65
2018-02-22T12:31:53.357Z,11.95
2018-02-22T12:34:19.998Z,11.27
2018-02-22T12:36:46.778Z,11.40
2018-02-22T12:39:13.391Z,10.15
2018-02-22T12:41:40.017Z,10.77
2018-02-22T12:44:06.637Z,10.93
2018-02-22T12:46:33.249Z,10.27
2018-02-22T12:48:59.938Z,9.95
2018-02-22T12:51:26.574Z,10.88
2018-02-22T12:53:53.252Z,11.90
2018-02-22T12:56:19.902Z,10.20
2018-02-22T12:58:46.589Z,10.57
2018-02-22T13:01:13.210Z,10.82
2018-02-22T13:03:39.823Z,11.10
2018-02-22T13:06:06.457Z,10.20
2018-02-22T13:08:33.087Z,10.70
2018-02-22T13:10:59.699Z,9.70
2018-02-22T13:13:26.426Z,11.05
2018-02-22T13:15:53.043Z,10.70
2018-02-22T13:18:19.649Z,9.73
2018-02-22T13:20:46.385Z,10.00
2018-02-22T13:23:13.152Z,10.05
2018-02-22T13:25:39.723Z,9.35
2018-02-22T13:28:06.353Z,10.63
2018-02-22T13:30:32.970Z,9.43
2018-02-22T13:33:05.581Z,10.27
2018-02-22T13:35:32.201Z,11.00
2018-02-22T13:38:08.639Z,9.65
2018-02-22T13:40:35.266Z,11.55
2018-02-22T13:43:01.878Z,10.63
2018-02-22T13:45:28.508Z,9.90
2018-02-22T13:47:55.126Z,10.68
2018-02-22T13:50:27.550Z,9.50
2018-02-22T13:52:54.176Z,9.75
2018-02-22T13:55:20.781Z,8.52
2018-02-22T13:57:47.437Z,10.13
2018-02-22T14:00:20.009Z,9.48
2018-02-22T14:02:46.650Z,8.77
2018-02-22T14:05:13.333Z,9.77
2018-02-22T14:07:39.947Z,9.18
2018-02-22T14:10:06.610Z,10.63
2018-02-22T14:12:33.250Z,11.30
2018-02-22T14:14:59.858Z,10.98
2018-02-22T14:17:26.501Z,11.75
2018-02-22T14:19:53.136Z,12.02
2018-02-22T14:22:19.767Z,11.80
2018-02-22T14:24:46.398Z,10.82
2018-02-22T14:27:13.037Z,10.95
2018-02-22T14:29:39.684Z,10.45
2018-02-22T14:32:06.309Z,9.98
2018-02-22T14:34:32.963Z,10.98
2018-02-22T14:36:59.574Z,10.52
2018-02-22T14:39:26.201Z,10.52
2018-02-22T14:41:52.877Z,11.20
2018-02-22T14:44:19.499Z,11.18
2018-02-22T14:46:46.158Z,10.57
2018-02-22T14:49:12.779Z,10.90
2018-02-22T14:51:39.397Z,12.05
2018-02-22T14:54:06.114Z,10.57
2018-02-22T14:56:32.753Z,9.50
2018-02-22T14:58:59.365Z,11.43
2018-02-22T15:01:26.051Z,9.95
2018-02-22T15:03:52.772Z,10.23
2018-02-22T15:06:19.391Z,10.10
2018-02-22T15:08:46.024Z,9.02
2018-02-22T15:11:12.759Z,10.50
2018-02-22T15:13:39.390Z,9.40
2018-02-22T15:16:06.173Z,10.52
2018-02-22T15:18:32.812Z,15.13
2018-02-22T15:20:59.451Z,10.23
2018-02-22T15:23:26.082Z,10.32
2018-02-22T15:25:52.706Z,10.45
2018-02-22T15:28:19.321Z,11.90
2018-02-22T15:30:45.970Z,9.73
2018-02-22T15:33:12.614Z,11.27
2018-02-22T15:35:39.230Z,10.63
2018-02-22T15:38:05.887Z,11.35
2018-02-22T15:40:32.565Z,11.20
2018-02-22T15:42:59.186Z,11.48
2018-02-22T15:45:25.843Z,10.77
2018-02-22T15:47:52.453Z,9.98
2018-02-22T15:50:19.120Z,10.00
2018-02-22T15:52:45.820Z,10.27
2018-02-22T15:55:12.446Z,12.30
2018-02-22T15:57:39.142Z,11.38
2018-02-22T16:00:05.771Z,10.90
2018-02-22T16:02:32.376Z,11.55
2018-02-22T16:04:59.058Z,12.10
2018-02-22T16:07:25.733Z,12.75
2018-02-22T16:09:52.353Z,11.38
2018-02-22T16:12:18.986Z,12.93
2018-02-22T16:14:45.623Z,13.62
2018-02-22T16:17:12.229Z,13.90
2018-02-22T16:19:38.851Z,12.57
2018-02-22T16:22:05.477Z,15.77
2018-02-22T16:24:32.098Z,14.40
2018-02-22T16:26:58.810Z,17.60
2018-02-22T16:29:25.450Z,13.13
2018-02-22T16:31:52.071Z,14.48
2018-02-22T16:34:18.808Z,13.50
2018-02-22T16:36:45.425Z,14.50
2018-02-22T16:39:12.108Z,16.25
2018-02-22T16:41:38.759Z,15.98
2018-02-22T16:44:05.447Z,15.98
2018-02-22T16:46:32.054Z,15.77
2018-02-22T16:48:58.675Z,14.80
2018-02-22T16:51:25.310Z,16.15
2018-02-22T16:53:51.930Z,16.98
2018-02-22T16:56:18.542Z,15.93
2018-02-22T16:58:45.282Z,16.45
2018-02-22T17:01:11.901Z,17.35
2018-02-22T17:03:38.565Z,16.80
2018-02-22T17:06:05.300Z,16.12
2018-02-22T17:08:31.914Z,17.25
2018-02-22T17:10:58.534Z,17.35
2018-02-22T17:13:25.223Z,17.52
2018-02-22T17:15:51.842Z,18.20
2018-02-22T17:18:18.458Z,16.92
2018-02-22T17:20:45.177Z,18.58
2018-02-22T17:23:11.786Z,17.60
2018-02-22T17:25:37.994Z,15.73
2018-02-22T17:28:10.379Z,16.23
2018-02-22T17:30:42.550Z,17.00
2018-02-22T17:33:09.168Z,17.70
2018-02-22T17:35:41.562Z,17.05
2018-02-22T17:38:20.918Z,18.42
2018-02-22T17:40:53.190Z,16.90
2018-02-22T17:43:19.806Z,16.08
2018-02-22T17:45:46.430Z,17.15
2018-02-22T17:48:13.062Z,18.45
2018-02-22T17:50:39.678Z,16.80
2018-02-22T17:53:06.293Z,17.25
2018-02-22T17:55:32.942Z,18.45
2018-02-22T17:57:59.558Z,16.85
2018-02-22T18:00:26.179Z,15.65
2018-02-22T18:02:52.822Z,15.60
2018-02-22T18:05:19.439Z,15.45
2018-02-22T18:07:46.059Z,16.17
2018-02-22T18:10:12.733Z,17.02
2018-02-22T18:12:39.413Z,17.58
2018-02-22T18:15:05.986Z,15.82
2018-02-22T18:17:32.694Z,18.80
2018-02-22T18:19:59.306Z,15.07
2018-02-22T18:22:25.922Z,16.85
2018-02-22T18:24:52.570Z,16.62
2018-02-22T18:27:19.209Z,17.87
2018-02-22T18:29:45.891Z,17.55
2018-02-22T18:32:12.490Z,17.73
2018-02-22T18:34:39.111Z,17.08
2018-02-22T18:37:11.481Z,15.95
2018-02-22T18:39:38.118Z,17.48
2018-02-22T18:42:10.447Z,17.37
2018-02-22T18:44:42.955Z,16.80
2018-02-22T18:47:09.570Z,16.25
2018-02-22T18:49:36.270Z,16.70
2018-02-22T18:52:02.894Z,16.58
2018-02-22T18:54:29.585Z,18.62
2018-02-22T18:56:56.285Z,16.58
2018-02-22T18:59:22.918Z,17.33
2018-02-22T19:01:49.530Z,15.00
2018-02-22T19:04:16.205Z,17.75
2018-02-22T19:06:42.955Z,16.67
2018-02-22T19:09:09.565Z,17.30
2018-02-22T19:11:36.178Z,16.65
2018-02-22T19:14:02.810Z,16.70
2018-02-22T19:16:29.544Z,17.60
2018-02-22T19:18:56.163Z,16.10
2018-02-22T19:21:22.882Z,18.27
2018-02-22T19:23:49.522Z,16.12
2018-02-22T19:26:16.157Z,16.55
2018-02-22T19:28:42.786Z,16.48
2018-02-22T19:31:09.406Z,16.17
2018-02-22T19:33:36.078Z,16.77
2018-02-22T19:36:02.817Z,16.92
2018-02-22T19:38:29.470Z,18.12
2018-02-22T19:40:56.088Z,15.75
2018-02-22T19:43:22.742Z,15.43
2018-02-22T19:45:49.417Z,17.73
2018-02-22T19:48:16.029Z,16.67
2018-02-22T19:50:42.655Z,17.52
2018-02-22T19:53:09.334Z,17.90
2018-02-22T19:55:36.036Z,15.85
2018-02-22T19:58:02.661Z,17.45
2018-02-22T20:00:29.278Z,17.00
2018-02-22T20:02:55.964Z,16.42
2018-02-22T20:05:22.585Z,16.90
2018-02-22T20:07:49.207Z,17.10
2018-02-22T20:10:15.912Z,16.30
2018-02-22T20:12:42.537Z,17.08
2018-02-22T20:15:09.153Z,17.87
2018-02-22T20:17:35.779Z,16.70
2018-02-22T20:20:02.407Z,17.75
2018-02-22T20:22:29.066Z,17.65
2018-02-22T20:24:55.673Z,17.05
2018-02-22T20:27:22.311Z,18.77
2018-02-22T20:29:48.982Z,17.75
2018-02-22T20:32:15.623Z,17.60
2018-02-22T20:34:42.266Z,17.65
2018-02-22T20:37:08.897Z,19.15
2018-02-22T20:39:35.522Z,17.65
2018-02-22T20:42:02.167Z,17.05
2018-02-22T20:44:28.782Z,16.70
2018-02-22T20:46:55.394Z,17.42
2018-02-22T20:49:22.022Z,18.58
2018-02-22T20:51:52.629Z,18.20
2018-02-22T20:54:19.306Z,16.75
2018-02-22T20:56:45.954Z,16.70
2018-02-22T20:59:12.565Z,17.12
2018-02-22T21:01:39.183Z,16.75
2018-02-22T21:04:05.813Z,16.92
2018-02-22T21:06:32.423Z,16.45
2018-02-22T21:08:59.102Z,17.75
2018-02-22T21:11:25.730Z,17.90
2018-02-22T21:13:52.342Z,16.83
2018-02-22T21:16:19.013Z,16.87
2018-02-22T21:18:45.763Z,18.27
2018-02-22T21:21:12.403Z,18.20
2018-02-22T21:23:39.023Z,17.92
2018-02-22T21:26:05.658Z,18.75
2018-02-22T21:28:32.317Z,16.05
2018-02-22T21:30:58.931Z,17.80
2018-02-22T21:33:25.589Z,17.50
2018-02-22T21:35:52.207Z,18.23
2018-02-22T21:38:18.878Z,19.45
2018-02-22T21:40:45.657Z,17.35
2018-02-22T21:43:12.354Z,16.23
2018-02-22T21:45:38.966Z,18.58
2018-02-22T21:48:05.673Z,17.52
2018-02-22T21:50:32.282Z,16.80
2018-02-22T21:52:58.915Z,18.17
2018-02-22T21:55:25.537Z,17.42
2018-02-22T21:57:52.190Z,17.45
2018-02-22T22:00:18.801Z,16.87
2018-02-22T22:02:45.429Z,17.90
2018-02-22T22:05:12.106Z,16.45
2018-02-22T22:07:38.749Z,18.90
2018-02-22T22:10:05.485Z,17.85
2018-02-22T22:12:32.094Z,18.33
2018-02-22T22:14:58.707Z,16.73
2018-02-22T22:17:25.338Z,16.20
2018-02-22T22:19:52.046Z,20.08
2018-02-22T22:22:18.661Z,18.73
2018-02-22T22:24:45.396Z,16.00
2018-02-22T22:27:12.104Z,18.40
2018-02-22T22:29:38.705Z,20.00
2018-02-22T22:32:05.442Z,17.77
2018-02-22T22:34:32.057Z,17.37
2018-02-22T22:36:58.721Z,16.77
2018-02-22T22:39:25.404Z,17.62
2018-02-22T22:41:52.040Z,19.35
2018-02-22T22:44:18.648Z,17.42
2018-02-22T22:46:45.422Z,17.90
2018-02-22T22:49:12.046Z,19.37
2018-02-22T22:51:38.762Z,18.08
2018-02-22T22:54:05.390Z,18.92
2018-02-22T22:56:32.080Z,18.80
2018-02-22T22:58:58.790Z,19.85
2018-02-22T23:01:25.517Z,19.20
2018-02-22T23:03:52.161Z,19.08
2018-02-22T23:06:18.841Z,18.77
2018-02-22T23:08:45.470Z,19.27
2018-02-22T23:11:12.078Z,19.45
2018-02-22T23:13:38.718Z,19.45
2018-02-22T23:16:05.398Z,18.55
2018-02-22T23:18:32.100Z,18.70
2018-02-22T23:20:58.716Z,18.15
2018-02-22T23:23:25.419Z,17.60
2018-02-22T23:25:52.025Z,18.95
2018-02-22T23:28:18.634Z,19.37
2018-02-22T23:30:45.336Z,18.80
2018-02-22T23:33:11.974Z,18.60
2018-02-22T23:35:38.581Z,19.42
2018-02-22T23:38:05.215Z,19.12
2018-02-22T23:40:32.733Z,18.50
2018-02-22T23:42:59.348Z,19.55
2018-02-22T23:45:25.979Z,21.12
2018-02-22T23:47:53.330Z,19.00
2018-02-22T23:50:19.942Z,21.15
2018-02-22T23:52:46.571Z,18.42
2018-02-22T23:55:13.186Z,19.95
2018-02-22T23:57:39.861Z,19.42
